sensor_id;sensor_type;location;lat;lon;timestamp;P1;durP1;ratioP1;P2;durP2;ratioP2
20711;SDS011;10517;50.742;4.224;2022-07-18T00:01:29;2.30;;;2.20;;
20711;SDS011;10517;50.742;4.224;2022-07-18T00:03:55;2.13;;;2.03;;
20711;SDS011;10517;50.742;4.224;2022-07-18T00:06:21;2.10;;;2.00;;
20711;SDS011;10517;50.742;4.224;2022-07-18T00:08:46;2.67;;;2.47;;
20711;SDS011;10517;50.742;4.224;2022-07-18T00:11:12;2.33;;;2.13;;
20711;SDS011;10517;50.742;4.224;2022-07-18T00:13:37;2.40;;;2.20;;
20711;SDS011;10517;50.742;4.224;2022-07-18T00:16:03;2.47;;;2.10;;
20711;SDS011;10517;50.742;4.224;2022-07-18T00:18:29;1.95;;;1.80;;
20711;SDS011;10517;50.742;4.224;2022-07-18T00:20:55;2.00;;;1.90;;
20711;SDS011;10517;50.742;4.224;2022-07-18T00:23:21;2.20;;;2.10;;
20711;SDS011;10517;50.742;4.224;2022-07-18T00:25:47;2.63;;;1.90;;
20711;SDS011;10517;50.742;4.224;2022-07-18T00:28:12;5.28;;;2.60;;
20711;SDS011;10517;50.742;4.224;2022-07-18T00:30:38;2.13;;;2.03;;
20711;SDS011;10517;50.742;4.224;2022-07-18T00:33:04;2.17;;;1.98;;
20711;SDS011;10517;50.742;4.224;2022-07-18T00:35:30;2.65;;;2.20;;
20711;SDS011;10517;50.742;4.224;2022-07-18T00:37:56;2.30;;;2.10;;
20711;SDS011;10517;50.742;4.224;2022-07-18T00:40:21;3.22;;;2.30;;
20711;SDS011;10517;50.742;4.224;2022-07-18T00:42:47;2.00;;;1.90;;
20711;SDS011;10517;50.742;4.224;2022-07-18T00:45:12;2.50;;;2.30;;
20711;SDS011;10517;50.742;4.224;2022-07-18T00:47:38;3.80;;;2.67;;
20711;SDS011;10517;50.742;4.224;2022-07-18T00:50:04;5.43;;;2.35;;
20711;SDS011;10517;50.742;4.224;2022-07-18T00:52:32;2.40;;;2.20;;
20711;SDS011;10517;50.742;4.224;2022-07-18T00:54:58;8.38;;;2.33;;
20711;SDS011;10517;50.742;4.224;2022-07-18T00:57:24;2.75;;;2.30;;
20711;SDS011;10517;50.742;4.224;2022-07-18T00:59:50;2.00;;;1.90;;
20711;SDS011;10517;50.742;4.224;2022-07-18T01:02:35;2.70;;;2.50;;
20711;SDS011;10517;50.742;4.224;2022-07-18T01:05:01;2.42;;;2.22;;
20711;SDS011;10517;50.742;4.224;2022-07-18T01:07:27;4.30;;;2.33;;
20711;SDS011;10517;50.742;4.224;2022-07-18T01:09:53;2.70;;;2.50;;
20711;SDS011;10517;50.742;4.224;2022-07-18T01:12:19;3.00;;;2.50;;
20711;SDS011;10517;50.742;4.224;2022-07-18T01:14:45;2.42;;;2.28;;
20711;SDS011;10517;50.742;4.224;2022-07-18T01:17:12;2.33;;;2.22;;
20711;SDS011;10517;50.742;4.224;2022-07-18T01:19:39;2.63;;;2.42;;
20711;SDS011;10517;50.742;4.224;2022-07-18T01:22:05;6.57;;;2.25;;
20711;SDS011;10517;50.742;4.224;2022-07-18T01:24:30;2.15;;;2.00;;
20711;SDS011;10517;50.742;4.224;2022-07-18T01:26:56;2.65;;;2.30;;
20711;SDS011;10517;50.742;4.224;2022-07-18T01:29:21;3.75;;;2.58;;
20711;SDS011;10517;50.742;4.224;2022-07-18T01:31:47;2.30;;;2.20;;
20711;SDS011;10517;50.742;4.224;2022-07-18T01:34:12;2.55;;;2.35;;
20711;SDS011;10517;50.742;4.224;2022-07-18T01:36:38;5.20;;;2.28;;
20711;SDS011;10517;50.742;4.224;2022-07-18T01:39:04;3.20;;;2.08;;
20711;SDS011;10517;50.742;4.224;2022-07-18T01:41:29;2.72;;;2.20;;
20711;SDS011;10517;50.742;4.224;2022-07-18T01:43:55;2.50;;;2.30;;
20711;SDS011;10517;50.742;4.224;2022-07-18T01:46:21;2.17;;;2.08;;
20711;SDS011;10517;50.742;4.224;2022-07-18T01:48:46;2.22;;;2.13;;
20711;SDS011;10517;50.742;4.224;2022-07-18T01:51:12;4.28;;;2.63;;
20711;SDS011;10517;50.742;4.224;2022-07-18T01:53:38;1.92;;;1.83;;
20711;SDS011;10517;50.742;4.224;2022-07-18T01:56:05;2.42;;;2.33;;
20711;SDS011;10517;50.742;4.224;2022-07-18T01:58:31;2.58;;;2.20;;
20711;SDS011;10517;50.742;4.224;2022-07-18T02:00:57;3.83;;;2.67;;
20711;SDS011;10517;50.742;4.224;2022-07-18T02:03:22;2.67;;;2.47;;
20711;SDS011;10517;50.742;4.224;2022-07-18T02:05:48;2.33;;;2.00;;
20711;SDS011;10517;50.742;4.224;2022-07-18T02:08:14;2.58;;;2.40;;
20711;SDS011;10517;50.742;4.224;2022-07-18T02:10:39;2.55;;;2.08;;
20711;SDS011;10517;50.742;4.224;2022-07-18T02:13:05;2.35;;;2.15;;
20711;SDS011;10517;50.742;4.224;2022-07-18T02:15:31;2.08;;;1.98;;
20711;SDS011;10517;50.742;4.224;2022-07-18T02:17:56;4.70;;;2.13;;
20711;SDS011;10517;50.742;4.224;2022-07-18T02:20:22;2.40;;;2.20;;
20711;SDS011;10517;50.742;4.224;2022-07-18T02:22:48;9.98;;;2.50;;
20711;SDS011;10517;50.742;4.224;2022-07-18T02:25:14;2.35;;;2.17;;
20711;SDS011;10517;50.742;4.224;2022-07-18T02:27:39;2.53;;;2.00;;
20711;SDS011;10517;50.742;4.224;2022-07-18T02:30:06;4.38;;;2.22;;
20711;SDS011;10517;50.742;4.224;2022-07-18T02:32:33;2.97;;;2.08;;
20711;SDS011;10517;50.742;4.224;2022-07-18T02:35:02;2.20;;;2.10;;
20711;SDS011;10517;50.742;4.224;2022-07-18T02:37:29;2.20;;;2.10;;
20711;SDS011;10517;50.742;4.224;2022-07-18T02:39:54;2.42;;;2.22;;
20711;SDS011;10517;50.742;4.224;2022-07-18T02:42:20;2.00;;;1.90;;
20711;SDS011;10517;50.742;4.224;2022-07-18T02:44:45;4.80;;;2.25;;
20711;SDS011;10517;50.742;4.224;2022-07-18T02:47:11;2.92;;;2.00;;
20711;SDS011;10517;50.742;4.224;2022-07-18T02:49:36;2.22;;;2.03;;
20711;SDS011;10517;50.742;4.224;2022-07-18T02:52:04;2.58;;;2.35;;
20711;SDS011;10517;50.742;4.224;2022-07-18T02:54:33;2.03;;;1.92;;
20711;SDS011;10517;50.742;4.224;2022-07-18T02:57:00;2.58;;;2.38;;
20711;SDS011;10517;50.742;4.224;2022-07-18T02:59:26;3.72;;;1.98;;
20711;SDS011;10517;50.742;4.224;2022-07-18T03:01:53;5.03;;;2.20;;
20711;SDS011;10517;50.742;4.224;2022-07-18T03:04:20;3.72;;;2.50;;
20711;SDS011;10517;50.742;4.224;2022-07-18T03:06:46;15.63;;;2.42;;
20711;SDS011;10517;50.742;4.224;2022-07-18T03:09:12;3.10;;;2.30;;
20711;SDS011;10517;50.742;4.224;2022-07-18T03:11:38;2.33;;;2.10;;
20711;SDS011;10517;50.742;4.224;2022-07-18T03:14:04;7.28;;;1.95;;
20711;SDS011;10517;50.742;4.224;2022-07-18T03:16:30;2.00;;;1.90;;
20711;SDS011;10517;50.742;4.224;2022-07-18T03:18:55;6.97;;;2.25;;
20711;SDS011;10517;50.742;4.224;2022-07-18T03:21:21;4.18;;;2.00;;
20711;SDS011;10517;50.742;4.224;2022-07-18T03:23:47;5.75;;;2.45;;
20711;SDS011;10517;50.742;4.224;2022-07-18T03:26:12;2.90;;;2.38;;
20711;SDS011;10517;50.742;4.224;2022-07-18T03:28:38;3.45;;;2.65;;
20711;SDS011;10517;50.742;4.224;2022-07-18T03:31:03;2.47;;;2.28;;
20711;SDS011;10517;50.742;4.224;2022-07-18T03:33:29;2.15;;;1.98;;
20711;SDS011;10517;50.742;4.224;2022-07-18T03:35:55;2.08;;;1.98;;
20711;SDS011;10517;50.742;4.224;2022-07-18T03:38:21;2.50;;;2.30;;
20711;SDS011;10517;50.742;4.224;2022-07-18T03:40:46;1.90;;;1.80;;
20711;SDS011;10517;50.742;4.224;2022-07-18T03:43:12;6.85;;;2.00;;
20711;SDS011;10517;50.742;4.224;2022-07-18T03:45:37;3.05;;;1.90;;
20711;SDS011;10517;50.742;4.224;2022-07-18T03:48:03;2.38;;;2.17;;
20711;SDS011;10517;50.742;4.224;2022-07-18T03:50:29;1.90;;;1.70;;
20711;SDS011;10517;50.742;4.224;2022-07-18T03:52:55;2.90;;;2.53;;
20711;SDS011;10517;50.742;4.224;2022-07-18T03:55:21;2.15;;;1.73;;
20711;SDS011;10517;50.742;4.224;2022-07-18T03:57:47;2.00;;;1.80;;
20711;SDS011;10517;50.742;4.224;2022-07-18T04:00:13;2.95;;;2.10;;
20711;SDS011;10517;50.742;4.224;2022-07-18T04:02:40;4.40;;;2.17;;
20711;SDS011;10517;50.742;4.224;2022-07-18T04:05:07;5.80;;;2.33;;
20711;SDS011;10517;50.742;4.224;2022-07-18T04:07:33;2.00;;;1.70;;
20711;SDS011;10517;50.742;4.224;2022-07-18T04:09:59;2.05;;;1.85;;
20711;SDS011;10517;50.742;4.224;2022-07-18T04:12:25;3.25;;;1.83;;
20711;SDS011;10517;50.742;4.224;2022-07-18T04:14:50;4.82;;;2.17;;
20711;SDS011;10517;50.742;4.224;2022-07-18T04:17:16;9.43;;;2.22;;
20711;SDS011;10517;50.742;4.224;2022-07-18T04:19:42;2.67;;;2.20;;
20711;SDS011;10517;50.742;4.224;2022-07-18T04:22:07;2.50;;;2.30;;
20711;SDS011;10517;50.742;4.224;2022-07-18T04:24:33;2.30;;;1.80;;
20711;SDS011;10517;50.742;4.224;2022-07-18T04:26:58;3.70;;;2.38;;
20711;SDS011;10517;50.742;4.224;2022-07-18T04:29:24;6.15;;;2.10;;
20711;SDS011;10517;50.742;4.224;2022-07-18T04:31:50;2.58;;;2.38;;
20711;SDS011;10517;50.742;4.224;2022-07-18T04:34:16;9.18;;;2.38;;
20711;SDS011;10517;50.742;4.224;2022-07-18T04:36:42;2.42;;;2.00;;
20711;SDS011;10517;50.742;4.224;2022-07-18T04:39:08;1.83;;;1.70;;
20711;SDS011;10517;50.742;4.224;2022-07-18T04:41:34;4.25;;;2.05;;
20711;SDS011;10517;50.742;4.224;2022-07-18T04:43:59;2.60;;;2.30;;
20711;SDS011;10517;50.742;4.224;2022-07-18T04:46:25;3.10;;;2.03;;
20711;SDS011;10517;50.742;4.224;2022-07-18T04:48:50;2.60;;;2.40;;
20711;SDS011;10517;50.742;4.224;2022-07-18T04:51:16;3.97;;;2.22;;
20711;SDS011;10517;50.742;4.224;2022-07-18T04:53:41;5.00;;;2.50;;
20711;SDS011;10517;50.742;4.224;2022-07-18T04:56:07;2.28;;;2.08;;
20711;SDS011;10517;50.742;4.224;2022-07-18T04:58:33;1.83;;;1.73;;
20711;SDS011;10517;50.742;4.224;2022-07-18T05:00:58;7.43;;;2.40;;
20711;SDS011;10517;50.742;4.224;2022-07-18T05:03:24;5.13;;;2.90;;
20711;SDS011;10517;50.742;4.224;2022-07-18T05:05:49;4.90;;;2.65;;
20711;SDS011;10517;50.742;4.224;2022-07-18T05:08:15;2.55;;;2.13;;
20711;SDS011;10517;50.742;4.224;2022-07-18T05:10:41;2.95;;;2.67;;
20711;SDS011;10517;50.742;4.224;2022-07-18T05:13:06;4.70;;;2.45;;
20711;SDS011;10517;50.742;4.224;2022-07-18T05:15:32;2.55;;;2.35;;
20711;SDS011;10517;50.742;4.224;2022-07-18T05:17:57;4.65;;;2.30;;
20711;SDS011;10517;50.742;4.224;2022-07-18T05:20:24;3.05;;;2.20;;
20711;SDS011;10517;50.742;4.224;2022-07-18T05:22:51;2.08;;;1.95;;
20711;SDS011;10517;50.742;4.224;2022-07-18T05:25:17;5.07;;;2.60;;
20711;SDS011;10517;50.742;4.224;2022-07-18T05:27:43;5.47;;;2.83;;
20711;SDS011;10517;50.742;4.224;2022-07-18T05:30:10;3.15;;;2.60;;
20711;SDS011;10517;50.742;4.224;2022-07-18T05:32:38;3.53;;;2.88;;
20711;SDS011;10517;50.742;4.224;2022-07-18T05:35:07;2.92;;;2.63;;
20711;SDS011;10517;50.742;4.224;2022-07-18T05:37:34;2.92;;;2.72;;
20711;SDS011;10517;50.742;4.224;2022-07-18T05:40:06;4.55;;;2.85;;
20711;SDS011;10517;50.742;4.224;2022-07-18T05:42:33;3.05;;;2.20;;
20711;SDS011;10517;50.742;4.224;2022-07-18T05:44:59;2.40;;;2.10;;
20711;SDS011;10517;50.742;4.224;2022-07-18T05:47:25;2.05;;;1.92;;
20711;SDS011;10517;50.742;4.224;2022-07-18T05:49:50;2.90;;;2.55;;
20711;SDS011;10517;50.742;4.224;2022-07-18T05:52:16;5.10;;;3.10;;
20711;SDS011;10517;50.742;4.224;2022-07-18T05:54:42;5.10;;;3.00;;
20711;SDS011;10517;50.742;4.224;2022-07-18T05:57:08;2.30;;;2.10;;
20711;SDS011;10517;50.742;4.224;2022-07-18T05:59:33;4.35;;;2.90;;
20711;SDS011;10517;50.742;4.224;2022-07-18T06:01:59;4.82;;;2.55;;
20711;SDS011;10517;50.742;4.224;2022-07-18T06:04:25;3.60;;;2.88;;
20711;SDS011;10517;50.742;4.224;2022-07-18T06:06:50;3.97;;;3.05;;
20711;SDS011;10517;50.742;4.224;2022-07-18T06:09:16;6.13;;;2.85;;
20711;SDS011;10517;50.742;4.224;2022-07-18T06:11:42;3.75;;;2.75;;
20711;SDS011;10517;50.742;4.224;2022-07-18T06:14:08;5.55;;;3.15;;
20711;SDS011;10517;50.742;4.224;2022-07-18T06:16:34;4.63;;;2.92;;
20711;SDS011;10517;50.742;4.224;2022-07-18T06:19:02;5.10;;;3.22;;
20711;SDS011;10517;50.742;4.224;2022-07-18T06:21:28;4.18;;;3.00;;
20711;SDS011;10517;50.742;4.224;2022-07-18T06:23:54;2.85;;;2.63;;
20711;SDS011;10517;50.742;4.224;2022-07-18T06:26:19;3.78;;;3.10;;
20711;SDS011;10517;50.742;4.224;2022-07-18T06:28:46;4.57;;;3.10;;
20711;SDS011;10517;50.742;4.224;2022-07-18T06:31:11;6.50;;;3.20;;
20711;SDS011;10517;50.742;4.224;2022-07-18T06:33:40;3.78;;;3.03;;
20711;SDS011;10517;50.742;4.224;2022-07-18T06:36:05;3.78;;;2.67;;
20711;SDS011;10517;50.742;4.224;2022-07-18T06:38:31;3.10;;;2.80;;
20711;SDS011;10517;50.742;4.224;2022-07-18T06:40:57;5.80;;;3.13;;
20711;SDS011;10517;50.742;4.224;2022-07-18T06:43:23;4.80;;;3.45;;
20711;SDS011;10517;50.742;4.224;2022-07-18T06:45:48;6.68;;;2.80;;
20711;SDS011;10517;50.742;4.224;2022-07-18T06:48:17;3.78;;;3.45;;
20711;SDS011;10517;50.742;4.224;2022-07-18T06:50:42;11.05;;;3.13;;
20711;SDS011;10517;50.742;4.224;2022-07-18T06:53:09;5.70;;;3.25;;
20711;SDS011;10517;50.742;4.224;2022-07-18T06:55:34;4.85;;;3.03;;
20711;SDS011;10517;50.742;4.224;2022-07-18T06:58:00;6.40;;;3.10;;
20711;SDS011;10517;50.742;4.224;2022-07-18T07:00:26;4.30;;;2.92;;
20711;SDS011;10517;50.742;4.224;2022-07-18T07:02:51;5.68;;;2.67;;
20711;SDS011;10517;50.742;4.224;2022-07-18T07:05:18;6.50;;;3.00;;
20711;SDS011;10517;50.742;4.224;2022-07-18T07:07:45;3.60;;;2.67;;
20711;SDS011;10517;50.742;4.224;2022-07-18T07:10:12;12.95;;;2.85;;
20711;SDS011;10517;50.742;4.224;2022-07-18T07:12:47;6.63;;;2.70;;
20711;SDS011;10517;50.742;4.224;2022-07-18T07:15:17;3.00;;;2.70;;
20711;SDS011;10517;50.742;4.224;2022-07-18T07:17:44;5.05;;;3.58;;
20711;SDS011;10517;50.742;4.224;2022-07-18T07:20:10;5.25;;;3.30;;
20711;SDS011;10517;50.742;4.224;2022-07-18T07:22:43;3.08;;;2.88;;
20711;SDS011;10517;50.742;4.224;2022-07-18T07:25:10;6.53;;;2.85;;
20711;SDS011;10517;50.742;4.224;2022-07-18T07:27:37;3.67;;;2.75;;
20711;SDS011;10517;50.742;4.224;2022-07-18T07:30:03;4.82;;;2.72;;
20711;SDS011;10517;50.742;4.224;2022-07-18T07:32:33;7.15;;;2.70;;
20711;SDS011;10517;50.742;4.224;2022-07-18T07:35:05;4.03;;;2.78;;
20711;SDS011;10517;50.742;4.224;2022-07-18T07:37:35;12.48;;;3.10;;
20711;SDS011;10517;50.742;4.224;2022-07-18T07:40:00;3.17;;;2.95;;
20711;SDS011;10517;50.742;4.224;2022-07-18T07:42:27;3.15;;;2.95;;
20711;SDS011;10517;50.742;4.224;2022-07-18T07:44:53;3.58;;;3.03;;
20711;SDS011;10517;50.742;4.224;2022-07-18T07:47:18;3.90;;;3.10;;
20711;SDS011;10517;50.742;4.224;2022-07-18T07:49:44;4.25;;;3.03;;
20711;SDS011;10517;50.742;4.224;2022-07-18T07:52:10;3.88;;;2.78;;
20711;SDS011;10517;50.742;4.224;2022-07-18T07:54:38;2.70;;;2.55;;
20711;SDS011;10517;50.742;4.224;2022-07-18T07:57:04;2.40;;;2.30;;
20711;SDS011;10517;50.742;4.224;2022-07-18T07:59:30;10.77;;;3.20;;
20711;SDS011;10517;50.742;4.224;2022-07-18T08:01:57;2.78;;;2.58;;
20711;SDS011;10517;50.742;4.224;2022-07-18T08:04:23;3.63;;;2.85;;
20711;SDS011;10517;50.742;4.224;2022-07-18T08:06:49;5.70;;;4.22;;
20711;SDS011;10517;50.742;4.224;2022-07-18T08:09:14;3.15;;;2.85;;
20711;SDS011;10517;50.742;4.224;2022-07-18T08:11:40;3.38;;;3.00;;
20711;SDS011;10517;50.742;4.224;2022-07-18T08:14:05;2.55;;;2.38;;
20711;SDS011;10517;50.742;4.224;2022-07-18T08:16:31;3.17;;;2.83;;
20711;SDS011;10517;50.742;4.224;2022-07-18T08:18:57;2.72;;;2.50;;
20711;SDS011;10517;50.742;4.224;2022-07-18T08:21:22;4.05;;;2.55;;
20711;SDS011;10517;50.742;4.224;2022-07-18T08:23:48;3.40;;;2.85;;
20711;SDS011;10517;50.742;4.224;2022-07-18T08:26:14;3.42;;;2.65;;
20711;SDS011;10517;50.742;4.224;2022-07-18T08:28:40;2.60;;;2.40;;
20711;SDS011;10517;50.742;4.224;2022-07-18T08:31:06;3.00;;;2.60;;
20711;SDS011;10517;50.742;4.224;2022-07-18T08:33:31;2.47;;;2.35;;
20711;SDS011;10517;50.742;4.224;2022-07-18T08:35:57;3.92;;;2.85;;
20711;SDS011;10517;50.742;4.224;2022-07-18T08:38:22;2.35;;;2.22;;
20711;SDS011;10517;50.742;4.224;2022-07-18T08:40:48;3.20;;;2.30;;
20711;SDS011;10517;50.742;4.224;2022-07-18T08:43:17;2.42;;;2.22;;
20711;SDS011;10517;50.742;4.224;2022-07-18T08:45:44;2.17;;;2.08;;
20711;SDS011;10517;50.742;4.224;2022-07-18T08:48:14;2.28;;;2.17;;
20711;SDS011;10517;50.742;4.224;2022-07-18T08:50:44;4.25;;;2.08;;
20711;SDS011;10517;50.742;4.224;2022-07-18T08:53:12;2.30;;;2.20;;
20711;SDS011;10517;50.742;4.224;2022-07-18T08:55:38;2.83;;;2.58;;
20711;SDS011;10517;50.742;4.224;2022-07-18T08:58:03;2.50;;;2.40;;
20711;SDS011;10517;50.742;4.224;2022-07-18T09:00:29;2.30;;;2.20;;
20711;SDS011;10517;50.742;4.224;2022-07-18T09:03:02;2.45;;;2.35;;
20711;SDS011;10517;50.742;4.224;2022-07-18T09:05:29;2.58;;;2.40;;
20711;SDS011;10517;50.742;4.224;2022-07-18T09:08:08;2.65;;;2.45;;
20711;SDS011;10517;50.742;4.224;2022-07-18T09:10:52;3.45;;;3.13;;
20711;SDS011;10517;50.742;4.224;2022-07-18T09:13:35;2.40;;;2.30;;
20711;SDS011;10517;50.742;4.224;2022-07-18T09:16:09;2.30;;;2.20;;
20711;SDS011;10517;50.742;4.224;2022-07-18T09:18:41;2.67;;;2.58;;
20711;SDS011;10517;50.742;4.224;2022-07-18T09:23:37;2.40;;;2.30;;
20711;SDS011;10517;50.742;4.224;2022-07-18T09:26:04;2.45;;;2.25;;
20711;SDS011;10517;50.742;4.224;2022-07-18T09:28:49;3.35;;;2.63;;
20711;SDS011;10517;50.742;4.224;2022-07-18T09:31:21;2.58;;;2.47;;
20711;SDS011;10517;50.742;4.224;2022-07-18T09:34:01;2.60;;;2.50;;
20711;SDS011;10517;50.742;4.224;2022-07-18T09:36:28;5.05;;;2.42;;
20711;SDS011;10517;50.742;4.224;2022-07-18T09:38:55;2.67;;;2.47;;
20711;SDS011;10517;50.742;4.224;2022-07-18T09:41:27;2.60;;;2.50;;
20711;SDS011;10517;50.742;4.224;2022-07-18T09:43:57;3.95;;;2.60;;
20711;SDS011;10517;50.742;4.224;2022-07-18T09:46:23;2.72;;;2.63;;
20711;SDS011;10517;50.742;4.224;2022-07-18T09:49:07;2.40;;;2.30;;
20711;SDS011;10517;50.742;4.224;2022-07-18T09:51:33;2.40;;;2.30;;
20711;SDS011;10517;50.742;4.224;2022-07-18T09:53:59;2.55;;;2.45;;
20711;SDS011;10517;50.742;4.224;2022-07-18T09:56:26;3.05;;;2.85;;
20711;SDS011;10517;50.742;4.224;2022-07-18T09:58:53;2.65;;;2.45;;
20711;SDS011;10517;50.742;4.224;2022-07-18T10:01:20;3.22;;;3.03;;
20711;SDS011;10517;50.742;4.224;2022-07-18T10:03:47;2.72;;;2.58;;
20711;SDS011;10517;50.742;4.224;2022-07-18T10:06:14;3.85;;;3.00;;
20711;SDS011;10517;50.742;4.224;2022-07-18T10:08:41;3.13;;;2.80;;
20711;SDS011;10517;50.742;4.224;2022-07-18T10:11:07;3.50;;;3.25;;
20711;SDS011;10517;50.742;4.224;2022-07-18T10:13:33;3.08;;;2.60;;
20711;SDS011;10517;50.742;4.224;2022-07-18T10:16:00;3.05;;;2.85;;
20711;SDS011;10517;50.742;4.224;2022-07-18T10:18:27;2.67;;;2.58;;
20711;SDS011;10517;50.742;4.224;2022-07-18T10:29:08;2.90;;;2.70;;
20711;SDS011;10517;50.742;4.224;2022-07-18T10:31:32;2.80;;;2.70;;
20711;SDS011;10517;50.742;4.224;2022-07-18T10:37:23;2.80;;;2.70;;
20711;SDS011;10517;50.742;4.224;2022-07-18T10:39:19;2.67;;;2.47;;
20711;SDS011;10517;50.742;4.224;2022-07-18T10:47:05;4.93;;;2.70;;
20711;SDS011;10517;50.742;4.224;2022-07-18T11:00:12;3.17;;;3.08;;
20711;SDS011;10517;50.742;4.224;2022-07-18T11:02:44;6.22;;;2.75;;
20711;SDS011;10517;50.742;4.224;2022-07-18T11:08:31;3.33;;;2.95;;
20711;SDS011;10517;50.742;4.224;2022-07-18T11:16:05;2.83;;;2.72;;
20711;SDS011;10517;50.742;4.224;2022-07-18T11:21:18;3.30;;;3.03;;
20711;SDS011;10517;50.742;4.224;2022-07-18T11:24:03;3.72;;;3.00;;
20711;SDS011;10517;50.742;4.224;2022-07-18T11:26:37;3.25;;;3.08;;
20711;SDS011;10517;50.742;4.224;2022-07-18T11:29:08;3.42;;;2.90;;
20711;SDS011;10517;50.742;4.224;2022-07-18T11:34:14;3.22;;;3.03;;
20711;SDS011;10517;50.742;4.224;2022-07-18T11:36:41;3.20;;;3.00;;
20711;SDS011;10517;50.742;4.224;2022-07-18T11:39:08;2.70;;;2.60;;
20711;SDS011;10517;50.742;4.224;2022-07-18T11:41:35;3.50;;;3.35;;
20711;SDS011;10517;50.742;4.224;2022-07-18T11:44:03;4.13;;;2.78;;
20711;SDS011;10517;50.742;4.224;2022-07-18T11:46:29;3.10;;;2.90;;
20711;SDS011;10517;50.742;4.224;2022-07-18T11:49:00;3.20;;;3.00;;
20711;SDS011;10517;50.742;4.224;2022-07-18T11:51:33;16.45;;;3.60;;
20711;SDS011;10517;50.742;4.224;2022-07-18T11:54:01;2.95;;;2.85;;
20711;SDS011;10517;50.742;4.224;2022-07-18T11:56:27;3.25;;;3.05;;
20711;SDS011;10517;50.742;4.224;2022-07-18T11:58:53;3.25;;;2.95;;
20711;SDS011;10517;50.742;4.224;2022-07-18T12:01:18;3.13;;;2.92;;
20711;SDS011;10517;50.742;4.224;2022-07-18T12:03:48;3.03;;;2.90;;
20711;SDS011;10517;50.742;4.224;2022-07-18T12:06:19;2.60;;;2.50;;
20711;SDS011;10517;50.742;4.224;2022-07-18T12:08:53;3.47;;;3.13;;
20711;SDS011;10517;50.742;4.224;2022-07-18T12:13:56;3.45;;;3.35;;
20711;SDS011;10517;50.742;4.224;2022-07-18T12:18:54;3.40;;;3.20;;
20711;SDS011;10517;50.742;4.224;2022-07-18T12:22:03;3.53;;;3.05;;
20711;SDS011;10517;50.742;4.224;2022-07-18T12:27:09;3.22;;;3.13;;
20711;SDS011;10517;50.742;4.224;2022-07-18T12:35:25;3.70;;;3.40;;
20711;SDS011;10517;50.742;4.224;2022-07-18T12:40:49;3.45;;;3.25;;
20711;SDS011;10517;50.742;4.224;2022-07-18T12:43:23;3.20;;;3.10;;
20711;SDS011;10517;50.742;4.224;2022-07-18T12:45:52;4.55;;;3.30;;
20711;SDS011;10517;50.742;4.224;2022-07-18T12:48:18;3.00;;;2.90;;
20711;SDS011;10517;50.742;4.224;2022-07-18T12:50:44;3.20;;;3.00;;
20711;SDS011;10517;50.742;4.224;2022-07-18T12:53:11;3.45;;;3.25;;
20711;SDS011;10517;50.742;4.224;2022-07-18T12:55:37;3.58;;;3.33;;
20711;SDS011;10517;50.742;4.224;2022-07-18T12:58:04;3.30;;;3.10;;
20711;SDS011;10517;50.742;4.224;2022-07-18T13:00:30;3.25;;;3.15;;
20711;SDS011;10517;50.742;4.224;2022-07-18T13:02:57;3.85;;;3.65;;
20711;SDS011;10517;50.742;4.224;2022-07-18T13:05:24;3.80;;;3.60;;
20711;SDS011;10517;50.742;4.224;2022-07-18T13:07:53;3.40;;;3.20;;
20711;SDS011;10517;50.742;4.224;2022-07-18T13:10:19;3.75;;;3.40;;
20711;SDS011;10517;50.742;4.224;2022-07-18T13:12:45;3.38;;;3.17;;
20711;SDS011;10517;50.742;4.224;2022-07-18T13:15:11;3.65;;;3.45;;
20711;SDS011;10517;50.742;4.224;2022-07-18T13:17:36;3.80;;;3.50;;
20711;SDS011;10517;50.742;4.224;2022-07-18T13:20:02;4.05;;;3.90;;
20711;SDS011;10517;50.742;4.224;2022-07-18T13:22:28;4.03;;;3.83;;
20711;SDS011;10517;50.742;4.224;2022-07-18T13:25:02;4.30;;;4.10;;
20711;SDS011;10517;50.742;4.224;2022-07-18T13:27:31;3.92;;;3.83;;
20711;SDS011;10517;50.742;4.224;2022-07-18T13:29:57;4.47;;;4.28;;
20711;SDS011;10517;50.742;4.224;2022-07-18T13:32:22;5.00;;;4.43;;
20711;SDS011;10517;50.742;4.224;2022-07-18T13:34:48;5.03;;;4.80;;
20711;SDS011;10517;50.742;4.224;2022-07-18T13:37:14;4.97;;;4.78;;
20711;SDS011;10517;50.742;4.224;2022-07-18T13:39:39;5.28;;;5.00;;
20711;SDS011;10517;50.742;4.224;2022-07-18T13:42:05;5.03;;;4.72;;
20711;SDS011;10517;50.742;4.224;2022-07-18T13:44:31;5.68;;;5.38;;
20711;SDS011;10517;50.742;4.224;2022-07-18T13:46:56;5.47;;;5.28;;
20711;SDS011;10517;50.742;4.224;2022-07-18T13:49:22;6.07;;;5.78;;
20711;SDS011;10517;50.742;4.224;2022-07-18T13:51:48;5.70;;;5.50;;
20711;SDS011;10517;50.742;4.224;2022-07-18T13:54:13;5.45;;;5.20;;
20711;SDS011;10517;50.742;4.224;2022-07-18T13:56:42;5.68;;;5.47;;
20711;SDS011;10517;50.742;4.224;2022-07-18T13:59:08;6.22;;;6.00;;
20711;SDS011;10517;50.742;4.224;2022-07-18T14:01:34;6.05;;;5.78;;
20711;SDS011;10517;50.742;4.224;2022-07-18T14:04:00;5.95;;;5.75;;
20711;SDS011;10517;50.742;4.224;2022-07-18T14:06:26;6.00;;;5.70;;
20711;SDS011;10517;50.742;4.224;2022-07-18T14:08:51;5.38;;;5.18;;
20711;SDS011;10517;50.742;4.224;2022-07-18T14:11:17;6.68;;;6.38;;
20711;SDS011;10517;50.742;4.224;2022-07-18T14:13:43;6.10;;;5.80;;
20711;SDS011;10517;50.742;4.224;2022-07-18T14:16:09;7.05;;;6.75;;
20711;SDS011;10517;50.742;4.224;2022-07-18T14:18:34;7.30;;;6.95;;
20711;SDS011;10517;50.742;4.224;2022-07-18T14:21:00;6.15;;;5.95;;
20711;SDS011;10517;50.742;4.224;2022-07-18T14:23:26;7.20;;;6.78;;
20711;SDS011;10517;50.742;4.224;2022-07-18T14:25:51;6.90;;;6.60;;
20711;SDS011;10517;50.742;4.224;2022-07-18T14:28:17;7.03;;;6.72;;
20711;SDS011;10517;50.742;4.224;2022-07-18T14:30:42;6.32;;;5.97;;
20711;SDS011;10517;50.742;4.224;2022-07-18T14:33:08;6.75;;;6.45;;
20711;SDS011;10517;50.742;4.224;2022-07-18T14:35:34;6.88;;;6.25;;
20711;SDS011;10517;50.742;4.224;2022-07-18T14:37:59;6.80;;;6.40;;
20711;SDS011;10517;50.742;4.224;2022-07-18T14:40:25;6.10;;;5.90;;
20711;SDS011;10517;50.742;4.224;2022-07-18T14:42:50;7.10;;;6.80;;
20711;SDS011;10517;50.742;4.224;2022-07-18T14:45:16;7.10;;;6.80;;
20711;SDS011;10517;50.742;4.224;2022-07-18T14:47:42;6.32;;;6.13;;
20711;SDS011;10517;50.742;4.224;2022-07-18T14:50:08;7.32;;;7.00;;
20711;SDS011;10517;50.742;4.224;2022-07-18T14:52:35;8.15;;;7.47;;
20711;SDS011;10517;50.742;4.224;2022-07-18T14:55:01;6.88;;;6.57;;
20711;SDS011;10517;50.742;4.224;2022-07-18T14:57:27;7.28;;;6.88;;
20711;SDS011;10517;50.742;4.224;2022-07-18T14:59:53;6.93;;;6.63;;
20711;SDS011;10517;50.742;4.224;2022-07-18T15:02:18;7.00;;;6.70;;
20711;SDS011;10517;50.742;4.224;2022-07-18T15:04:44;6.82;;;6.53;;
20711;SDS011;10517;50.742;4.224;2022-07-18T15:07:09;7.22;;;6.75;;
20711;SDS011;10517;50.742;4.224;2022-07-18T15:09:35;7.95;;;7.65;;
20711;SDS011;10517;50.742;4.224;2022-07-18T15:12:01;7.55;;;7.25;;
20711;SDS011;10517;50.742;4.224;2022-07-18T15:14:27;7.20;;;6.90;;
20711;SDS011;10517;50.742;4.224;2022-07-18T15:16:53;7.97;;;7.68;;
20711;SDS011;10517;50.742;4.224;2022-07-18T15:19:19;7.93;;;7.57;;
20711;SDS011;10517;50.742;4.224;2022-07-18T15:21:44;7.28;;;6.97;;
20711;SDS011;10517;50.742;4.224;2022-07-18T15:24:10;6.88;;;6.57;;
20711;SDS011;10517;50.742;4.224;2022-07-18T15:26:36;8.10;;;7.70;;
20711;SDS011;10517;50.742;4.224;2022-07-18T15:29:01;8.38;;;7.88;;
20711;SDS011;10517;50.742;4.224;2022-07-18T15:31:27;8.43;;;8.02;;
20711;SDS011;10517;50.742;4.224;2022-07-18T15:33:53;8.07;;;7.78;;
20711;SDS011;10517;50.742;4.224;2022-07-18T15:36:19;7.20;;;6.85;;
20711;SDS011;10517;50.742;4.224;2022-07-18T15:38:44;6.57;;;6.20;;
20711;SDS011;10517;50.742;4.224;2022-07-18T15:41:10;7.05;;;6.75;;
20711;SDS011;10517;50.742;4.224;2022-07-18T15:43:36;7.70;;;7.28;;
20711;SDS011;10517;50.742;4.224;2022-07-18T15:46:04;7.97;;;7.47;;